createdAt,value
2022-10-13T00:00:49.855Z,7.40
2022-10-13T00:03:17.292Z,7.40
2022-10-13T00:05:48.214Z,7.40
2022-10-13T00:08:19.936Z,7.30
2022-10-13T00:10:49.583Z,7.20
2022-10-13T00:13:19.879Z,7.10
2022-10-13T00:15:48.022Z,7.10
2022-10-13T00:18:15.839Z,7.00
2022-10-13T00:20:48.633Z,7.00
2022-10-13T00:23:16.675Z,7.00
2022-10-13T00:25:46.553Z,7.00
2022-10-13T00:28:16.740Z,7.00
2022-10-13T00:30:43.503Z,7.00
2022-10-13T00:33:11.771Z,6.90
2022-10-13T00:35:48.109Z,6.90
2022-10-13T00:38:17.648Z,6.90
2022-10-13T00:40:55.843Z,6.90
2022-10-13T00:43:47.108Z,7.00
2022-10-13T00:46:14.939Z,6.90
2022-10-13T00:48:43.219Z,6.90
2022-10-13T00:51:12.888Z,6.90
2022-10-13T00:53:40.319Z,6.80
2022-10-13T00:56:10.256Z,6.80
2022-10-13T00:58:39.051Z,6.70
2022-10-13T01:01:07.353Z,6.70
2022-10-13T01:03:34.672Z,6.70
2022-10-13T01:06:04.883Z,6.70
2022-10-13T01:08:31.908Z,6.70
2022-10-13T01:11:08.803Z,6.60
2022-10-13T01:14:18.360Z,6.50
2022-10-13T01:16:53.524Z,6.40
2022-10-13T01:19:45.503Z,6.40
2022-10-13T01:22:53.524Z,6.50
2022-10-13T01:25:57.384Z,6.50
2022-10-13T01:29:14.547Z,6.50
2022-10-13T01:31:51.316Z,6.40
2022-10-13T01:34:44.464Z,6.30
2022-10-13T01:37:33.851Z,6.30
2022-10-13T01:40:13.919Z,6.30
2022-10-13T01:42:58.162Z,6.20
2022-10-13T01:45:37.346Z,6.20
2022-10-13T01:48:05.939Z,6.20
2022-10-13T01:50:34.702Z,6.20
2022-10-13T01:53:04.959Z,6.20
2022-10-13T01:55:31.991Z,6.20
2022-10-13T01:57:58.563Z,6.20
2022-10-13T02:00:26.084Z,6.20
2022-10-13T02:03:40.080Z,6.20
2022-10-13T02:06:34.062Z,6.20
2022-10-13T02:09:28.439Z,6.20
2022-10-13T02:12:24.891Z,6.30
2022-10-13T02:14:59.051Z,6.30
2022-10-13T02:17:28.058Z,6.30
2022-10-13T02:19:56.420Z,6.40
2022-10-13T02:22:30.401Z,6.50
2022-10-13T02:24:57.082Z,6.60
2022-10-13T02:27:23.914Z,6.50
2022-10-13T02:29:56.734Z,6.60
2022-10-13T02:32:24.024Z,6.60
2022-10-13T02:34:51.255Z,6.60
2022-10-13T02:37:18.067Z,6.60
2022-10-13T02:39:44.679Z,6.60
2022-10-13T02:42:11.431Z,6.60
2022-10-13T02:44:39.215Z,6.60
2022-10-13T02:47:06.019Z,6.60
2022-10-13T02:49:32.574Z,6.60
2022-10-13T02:51:59.141Z,6.70
2022-10-13T02:54:27.175Z,6.70
2022-10-13T02:56:53.743Z,6.80
2022-10-13T02:59:20.363Z,6.80
2022-10-13T03:01:46.903Z,6.90
2022-10-13T03:04:13.488Z,6.90
2022-10-13T03:06:40.099Z,6.90
2022-10-13T03:09:06.787Z,6.90
2022-10-13T03:11:34.398Z,6.80
2022-10-13T03:14:00.925Z,6.90
2022-10-13T03:16:27.497Z,6.80
2022-10-13T03:18:54.072Z,6.90
2022-10-13T03:21:20.837Z,6.90
2022-10-13T03:23:47.434Z,6.90
2022-10-13T03:26:15.403Z,6.80
2022-10-13T03:28:42.255Z,6.80
2022-10-13T03:31:11.099Z,6.80
2022-10-13T03:33:37.655Z,6.80
2022-10-13T03:36:07.311Z,6.90
2022-10-13T03:38:35.588Z,6.90
2022-10-13T03:41:11.699Z,6.90
2022-10-13T03:43:39.188Z,6.90
2022-10-13T03:46:07.679Z,6.90
2022-10-13T03:48:35.868Z,6.90
2022-10-13T03:51:11.256Z,6.90
2022-10-13T03:53:38.024Z,6.90
2022-10-13T03:56:06.442Z,6.90
2022-10-13T03:58:34.029Z,6.90
2022-10-13T04:01:05.222Z,7.00
2022-10-13T04:03:34.383Z,7.00
2022-10-13T04:06:03.019Z,6.90
2022-10-13T04:08:32.083Z,7.00
2022-10-13T04:11:02.768Z,7.00
2022-10-13T04:13:29.369Z,7.10
2022-10-13T04:15:55.947Z,7.20
2022-10-13T04:18:22.511Z,7.30
2022-10-13T04:20:49.139Z,7.30
2022-10-13T04:23:15.845Z,7.40
2022-10-13T04:25:44.971Z,7.40
2022-10-13T04:28:12.715Z,7.40
2022-10-13T04:30:39.611Z,7.40
2022-10-13T04:33:06.360Z,7.40
2022-10-13T04:35:33.063Z,7.40
2022-10-13T04:37:59.691Z,7.40
2022-10-13T04:40:27.304Z,7.40
2022-10-13T04:42:53.942Z,7.50
2022-10-13T04:45:20.556Z,7.40
2022-10-13T04:47:47.441Z,7.60
2022-10-13T04:50:14.135Z,7.50
2022-10-13T04:52:40.700Z,7.40
2022-10-13T04:55:10.111Z,7.40
2022-10-13T04:57:37.001Z,7.30
2022-10-13T05:00:07.116Z,7.30
2022-10-13T05:02:36.037Z,7.30
2022-10-13T05:05:03.475Z,7.30
2022-10-13T05:07:31.716Z,7.30
2022-10-13T05:09:58.296Z,7.30
2022-10-13T05:12:24.972Z,7.40
2022-10-13T05:14:51.556Z,7.30
2022-10-13T05:17:18.101Z,7.30
2022-10-13T05:19:44.668Z,7.20
2022-10-13T05:22:11.283Z,7.20
2022-10-13T05:24:38.417Z,7.10
2022-10-13T05:27:13.175Z,7.30
2022-10-13T05:29:40.929Z,7.30
2022-10-13T05:32:08.378Z,7.20
2022-10-13T05:34:35.021Z,7.20
2022-10-13T05:37:01.834Z,7.10
2022-10-13T05:39:30.843Z,7.10
2022-10-13T05:41:57.653Z,7.10
2022-10-13T05:44:24.545Z,7.00
2022-10-13T05:46:51.162Z,7.00
2022-10-13T05:49:20.062Z,7.00
2022-10-13T05:51:51.212Z,7.10
2022-10-13T05:54:24.551Z,7.10
2022-10-13T05:56:59.907Z,7.10
2022-10-13T05:59:30.601Z,7.10
2022-10-13T06:01:57.498Z,7.10
2022-10-13T06:04:43.035Z,7.10
2022-10-13T06:07:10.131Z,7.10
2022-10-13T06:09:40.808Z,7.20
2022-10-13T06:12:08.992Z,7.20
2022-10-13T06:14:36.303Z,7.20
2022-10-13T06:17:03.284Z,7.20
2022-10-13T06:19:29.887Z,7.20
2022-10-13T06:21:59.947Z,7.20
2022-10-13T06:24:29.248Z,7.20
2022-10-13T06:26:55.804Z,7.30
2022-10-13T06:29:22.444Z,7.20
2022-10-13T06:31:49.050Z,7.20
2022-10-13T06:34:15.693Z,7.20
2022-10-13T06:36:42.277Z,7.20
2022-10-13T06:39:09.190Z,7.30
2022-10-13T06:41:37.298Z,7.30
2022-10-13T06:44:04.233Z,7.40
2022-10-13T06:46:30.986Z,7.40
2022-10-13T06:48:57.717Z,7.40
2022-10-13T06:51:24.386Z,7.50
2022-10-13T06:53:50.992Z,7.60
2022-10-13T06:56:17.685Z,7.60
2022-10-13T06:58:44.264Z,7.60
2022-10-13T07:01:13.301Z,7.70
2022-10-13T07:03:39.857Z,7.70
2022-10-13T07:06:07.789Z,7.70
2022-10-13T07:08:34.988Z,7.70
2022-10-13T07:11:15.969Z,7.80
2022-10-13T07:13:46.405Z,7.80
2022-10-13T07:16:14.256Z,7.90
2022-10-13T07:18:40.837Z,8.00
2022-10-13T07:21:07.541Z,8.00
2022-10-13T07:23:34.193Z,8.10
2022-10-13T07:26:01.649Z,8.20
2022-10-13T07:28:28.832Z,8.30
2022-10-13T07:30:55.539Z,8.50
2022-10-13T07:33:22.488Z,8.70
2022-10-13T07:35:49.086Z,8.90
2022-10-13T07:38:15.684Z,9.30
2022-10-13T07:40:42.436Z,9.60
2022-10-13T07:43:09.018Z,10.20
2022-10-13T07:45:35.764Z,10.40
2022-10-13T07:48:02.394Z,10.60
2022-10-13T07:50:29.891Z,10.60
2022-10-13T07:52:56.543Z,10.50
2022-10-13T07:55:23.258Z,10.30
2022-10-13T07:57:49.826Z,10.20
2022-10-13T08:00:16.766Z,10.10
2022-10-13T08:02:43.383Z,10.20
2022-10-13T08:05:10.050Z,10.20
2022-10-13T08:07:39.092Z,10.10
2022-10-13T08:10:06.558Z,10.10
2022-10-13T08:12:36.159Z,10.10
2022-10-13T08:15:06.336Z,10.10
2022-10-13T08:17:33.588Z,10.20
2022-10-13T08:20:00.243Z,10.30
2022-10-13T08:22:28.361Z,10.40
2022-10-13T08:24:55.887Z,10.50
2022-10-13T08:27:37.077Z,10.50
2022-10-13T08:30:12.024Z,10.50
2022-10-13T08:32:38.654Z,10.40
2022-10-13T08:35:05.926Z,10.30
2022-10-13T08:37:32.511Z,10.30
2022-10-13T08:39:59.071Z,10.30
2022-10-13T08:42:25.688Z,10.20
2022-10-13T08:45:22.126Z,10.10
2022-10-13T08:47:53.064Z,10.10
2022-10-13T08:50:24.220Z,10.20
2022-10-13T08:52:58.049Z,10.10
2022-10-13T08:55:33.499Z,10.20
2022-10-13T08:58:02.729Z,10.30
2022-10-13T09:00:30.099Z,10.30
2022-10-13T09:03:20.227Z,10.30
2022-10-13T09:06:11.576Z,10.40
2022-10-13T09:08:45.563Z,10.40
2022-10-13T09:11:13.293Z,10.60
2022-10-13T09:13:40.752Z,10.70
2022-10-13T09:16:08.088Z,10.70
2022-10-13T09:18:35.192Z,10.80
2022-10-13T09:21:23.541Z,10.90
2022-10-13T09:23:53.862Z,11.00
2022-10-13T09:26:24.336Z,11.00
2022-10-13T09:28:52.841Z,10.90
2022-10-13T09:31:23.772Z,10.90
2022-10-13T09:34:13.848Z,11.00
2022-10-13T09:36:59.589Z,11.10
2022-10-13T09:39:26.648Z,11.20
2022-10-13T09:42:17.890Z,11.20
2022-10-13T09:44:45.508Z,11.20
2022-10-13T09:47:21.605Z,11.30
2022-10-13T09:50:06.464Z,11.40
2022-10-13T09:52:34.776Z,11.40
2022-10-13T09:55:01.594Z,11.30
2022-10-13T09:57:41.361Z,11.20
2022-10-13T10:00:24.155Z,11.10
2022-10-13T10:03:18.345Z,11.10
2022-10-13T10:05:55.246Z,10.90
2022-10-13T10:09:08.633Z,10.90
2022-10-13T10:11:45.251Z,10.90
2022-10-13T10:14:25.056Z,10.90
2022-10-13T10:17:16.526Z,10.90
2022-10-13T10:20:13.118Z,10.90
2022-10-13T10:23:29.194Z,11.00
2022-10-13T10:26:03.826Z,11.00
2022-10-13T10:29:00.896Z,11.20
2022-10-13T10:31:52.278Z,11.30
2022-10-13T10:34:35.070Z,11.40
2022-10-13T10:37:26.269Z,11.70
2022-10-13T10:40:35.809Z,11.90
2022-10-13T10:43:48.394Z,12.10
2022-10-13T10:46:29.285Z,12.40
2022-10-13T10:49:02.889Z,12.60
2022-10-13T10:51:36.659Z,12.70
2022-10-13T10:54:49.051Z,12.80
2022-10-13T10:57:40.178Z,12.80
2022-10-13T11:00:19.207Z,12.80
2022-10-13T11:03:17.174Z,12.90
2022-10-13T11:06:05.798Z,13.00
2022-10-13T11:08:38.474Z,13.10
2022-10-13T11:11:24.917Z,13.20
2022-10-13T11:14:05.066Z,13.30
2022-10-13T11:17:03.682Z,13.30
2022-10-13T11:19:35.052Z,13.30
2022-10-13T11:22:01.607Z,13.30
2022-10-13T11:24:34.379Z,13.30
2022-10-13T11:27:15.999Z,13.40
2022-10-13T11:29:47.038Z,13.60
2022-10-13T11:32:25.941Z,13.80
2022-10-13T11:35:04.710Z,14.00
2022-10-13T11:38:05.974Z,14.20
2022-10-13T11:40:36.118Z,14.30
2022-10-13T11:43:35.934Z,14.40
2022-10-13T11:46:49.526Z,14.50
2022-10-13T11:49:55.481Z,14.80
2022-10-13T11:52:45.270Z,14.80
2022-10-13T11:55:47.788Z,14.80
2022-10-13T11:58:43.821Z,14.80
2022-10-13T12:01:15.870Z,14.80
2022-10-13T12:03:45.810Z,14.90
2022-10-13T12:06:35.602Z,15.10
2022-10-13T12:09:14.374Z,15.20
2022-10-13T12:11:41.126Z,15.20
2022-10-13T12:14:23.887Z,15.30
2022-10-13T12:16:59.523Z,15.20
2022-10-13T12:19:30.626Z,15.20
2022-10-13T12:22:01.254Z,15.20
2022-10-13T12:24:30.382Z,15.30
2022-10-13T12:26:59.197Z,15.40
2022-10-13T12:29:31.074Z,15.30
2022-10-13T12:32:00.186Z,15.30
2022-10-13T12:34:33.122Z,15.20
2022-10-13T12:37:14.118Z,15.20
2022-10-13T12:39:41.382Z,15.10
2022-10-13T12:42:11.030Z,15.10
2022-10-13T12:44:37.927Z,15.20
2022-10-13T12:47:04.582Z,15.20
2022-10-13T12:49:34.608Z,15.40
2022-10-13T12:52:15.447Z,15.50
2022-10-13T12:54:55.494Z,15.60
2022-10-13T12:57:35.039Z,15.80
2022-10-13T13:00:22.149Z,15.90
2022-10-13T13:03:01.807Z,15.90
2022-10-13T13:05:45.742Z,15.90
2022-10-13T13:08:30.116Z,15.80
2022-10-13T13:11:04.615Z,15.80
2022-10-13T13:13:31.398Z,15.70
2022-10-13T13:16:21.378Z,15.70
2022-10-13T13:18:50.173Z,15.60
2022-10-13T13:21:19.245Z,15.50
2022-10-13T13:23:52.711Z,15.50
2022-10-13T13:26:23.272Z,15.50
2022-10-13T13:28:55.018Z,15.50
2022-10-13T13:31:24.740Z,15.50
2022-10-13T13:33:51.551Z,15.60
2022-10-13T13:36:26.003Z,15.60
2022-10-13T13:38:54.030Z,15.60
2022-10-13T13:41:21.810Z,15.60
2022-10-13T13:43:49.288Z,15.70
2022-10-13T13:46:19.825Z,15.80
2022-10-13T13:48:46.713Z,15.90
2022-10-13T13:51:14.020Z,16.00
2022-10-13T13:53:40.888Z,16.00
2022-10-13T13:56:13.840Z,16.00
2022-10-13T13:58:40.432Z,16.00
2022-10-13T14:01:07.351Z,16.00
2022-10-13T14:03:33.918Z,16.00
2022-10-13T14:06:00.652Z,16.00
2022-10-13T14:08:34.284Z,16.00
2022-10-13T14:11:01.197Z,15.90
2022-10-13T14:13:27.898Z,15.90
2022-10-13T14:15:58.860Z,15.90
2022-10-13T14:18:26.180Z,15.90
2022-10-13T14:20:52.814Z,15.80
2022-10-13T14:23:19.632Z,15.80
2022-10-13T14:25:46.277Z,15.70
2022-10-13T14:28:17.909Z,15.60
2022-10-13T14:30:44.958Z,15.50
2022-10-13T14:33:11.540Z,15.40
2022-10-13T14:35:41.680Z,15.50
2022-10-13T14:38:08.230Z,15.40
2022-10-13T14:40:34.805Z,15.50
2022-10-13T14:43:01.437Z,15.50
2022-10-13T14:45:27.991Z,15.50
2022-10-13T14:47:54.559Z,15.40
2022-10-13T14:50:21.157Z,15.40
2022-10-13T14:52:47.714Z,15.50
2022-10-13T14:55:14.576Z,15.50
2022-10-13T14:57:41.217Z,15.40
2022-10-13T15:00:10.436Z,15.40
2022-10-13T15:02:37.032Z,15.40
2022-10-13T15:05:04.084Z,15.30
2022-10-13T15:07:30.720Z,15.30
2022-10-13T15:10:05.891Z,15.20
2022-10-13T15:12:33.524Z,15.10
2022-10-13T15:15:00.097Z,15.10
2022-10-13T15:17:27.809Z,15.00
2022-10-13T15:19:54.431Z,14.90
2022-10-13T15:22:21.219Z,14.90
2022-10-13T15:24:48.041Z,14.90
2022-10-13T15:27:14.625Z,14.80
2022-10-13T15:29:41.340Z,14.90
2022-10-13T15:32:17.550Z,14.80
2022-10-13T15:34:49.865Z,14.70
2022-10-13T15:37:16.546Z,14.70
2022-10-13T15:39:43.331Z,14.70
2022-10-13T15:42:11.527Z,14.60
2022-10-13T15:45:04.914Z,14.60
2022-10-13T15:47:24.997Z,14.60
2022-10-13T15:49:51.585Z,14.60
2022-10-13T15:52:18.522Z,14.50
2022-10-13T15:54:45.298Z,14.50
2022-10-13T15:57:11.896Z,14.40
2022-10-13T15:59:38.511Z,14.40
2022-10-13T16:02:06.654Z,14.30
2022-10-13T16:04:37.315Z,14.20
2022-10-13T16:07:04.929Z,14.10
2022-10-13T16:09:31.682Z,14.10
2022-10-13T16:11:58.294Z,14.00
2022-10-13T16:14:24.940Z,14.00
2022-10-13T16:16:51.577Z,14.00
2022-10-13T16:19:18.152Z,14.00
2022-10-13T16:22:09.561Z,14.00
2022-10-13T16:24:36.230Z,13.90
2022-10-13T16:27:02.910Z,13.90
2022-10-13T16:29:29.714Z,13.80
2022-10-13T16:31:56.286Z,13.80
2022-10-13T16:34:23.245Z,13.80
2022-10-13T16:36:50.425Z,13.70
2022-10-13T16:39:17.057Z,13.60
2022-10-13T16:41:43.690Z,13.50
2022-10-13T16:44:10.517Z,13.50
2022-10-13T16:46:37.235Z,13.40
2022-10-13T16:49:04.034Z,13.40
2022-10-13T16:51:30.689Z,13.30
2022-10-13T16:54:03.876Z,13.30
2022-10-13T16:56:32.113Z,13.20
2022-10-13T16:59:02.730Z,13.20
2022-10-13T17:01:31.097Z,13.10
2022-10-13T17:03:58.169Z,13.20
2022-10-13T17:06:28.004Z,13.10
2022-10-13T17:08:58.437Z,13.10
2022-10-13T17:11:30.305Z,13.10
2022-10-13T17:13:59.183Z,13.00
2022-10-13T17:16:26.943Z,13.00
2022-10-13T17:18:54.590Z,13.00
2022-10-13T17:21:22.018Z,12.90
2022-10-13T17:23:49.110Z,12.90
2022-10-13T17:26:17.811Z,12.90
2022-10-13T17:28:45.211Z,12.90
2022-10-13T17:31:16.700Z,12.80
2022-10-13T17:33:44.063Z,12.80
2022-10-13T17:36:27.523Z,12.80
2022-10-13T17:38:56.483Z,12.80
2022-10-13T17:41:24.389Z,12.80
2022-10-13T17:43:52.051Z,12.80
2022-10-13T17:46:38.462Z,12.70
2022-10-13T17:49:10.059Z,12.70
2022-10-13T17:51:36.820Z,12.70
2022-10-13T17:54:04.379Z,12.70
2022-10-13T17:56:31.484Z,12.60
2022-10-13T17:59:00.777Z,12.60
2022-10-13T18:01:33.880Z,12.60
2022-10-13T18:04:04.915Z,12.60
2022-10-13T18:06:40.370Z,12.50
2022-10-13T18:09:18.112Z,12.50
2022-10-13T18:11:50.250Z,12.50
2022-10-13T18:14:23.322Z,12.40
2022-10-13T18:16:51.901Z,12.40
2022-10-13T18:19:19.152Z,12.40
2022-10-13T18:21:45.821Z,12.40
2022-10-13T18:24:12.667Z,12.40
2022-10-13T18:26:39.896Z,12.40
2022-10-13T18:29:08.567Z,12.30
2022-10-13T18:31:38.403Z,12.30
2022-10-13T18:34:08.912Z,12.30
2022-10-13T18:36:48.145Z,12.20
2022-10-13T18:39:27.584Z,12.20
2022-10-13T18:42:01.348Z,12.20
2022-10-13T18:44:28.391Z,12.10
2022-10-13T18:46:56.403Z,12.10
2022-10-13T18:49:30.812Z,12.00
2022-10-13T18:51:59.102Z,12.00
2022-10-13T18:54:27.053Z,12.00
2022-10-13T18:56:54.057Z,12.00
2022-10-13T18:59:20.885Z,12.00
2022-10-13T19:01:47.665Z,12.00
2022-10-13T19:04:16.085Z,12.00
2022-10-13T19:06:44.267Z,12.00
2022-10-13T19:09:14.082Z,12.00
2022-10-13T19:11:41.189Z,12.00
2022-10-13T19:14:11.988Z,12.00
2022-10-13T19:16:41.845Z,11.90
2022-10-13T19:19:09.023Z,11.90
2022-10-13T19:21:38.686Z,12.00
2022-10-13T19:24:07.065Z,12.00
2022-10-13T19:26:35.504Z,11.90
2022-10-13T19:29:10.237Z,11.90
2022-10-13T19:31:39.543Z,12.00
2022-10-13T19:34:06.249Z,12.00
2022-10-13T19:36:41.016Z,11.90
2022-10-13T19:39:15.448Z,11.90
2022-10-13T19:41:43.974Z,12.00
2022-10-13T19:44:10.853Z,11.90
2022-10-13T19:46:38.032Z,11.90
2022-10-13T19:49:05.332Z,12.00
2022-10-13T19:51:33.950Z,12.00
2022-10-13T19:54:01.401Z,12.00
2022-10-13T19:56:33.970Z,12.00
2022-10-13T19:59:04.133Z,12.00
2022-10-13T20:01:32.040Z,12.00
2022-10-13T20:04:09.023Z,12.00
2022-10-13T20:06:36.379Z,12.00
2022-10-13T20:09:04.421Z,12.00
2022-10-13T20:11:31.090Z,12.10
2022-10-13T20:13:57.729Z,12.10
2022-10-13T20:16:25.175Z,12.10
2022-10-13T20:18:55.112Z,12.10
2022-10-13T20:21:22.392Z,12.20
2022-10-13T20:23:52.928Z,12.20
2022-10-13T20:26:20.761Z,12.20
2022-10-13T20:28:49.007Z,12.20
2022-10-13T20:31:18.939Z,12.20
2022-10-13T20:33:46.888Z,12.20
2022-10-13T20:36:16.955Z,12.20
2022-10-13T20:38:43.606Z,12.20
2022-10-13T20:41:29.295Z,12.20
2022-10-13T20:43:59.651Z,12.20
2022-10-13T20:46:26.702Z,12.20
2022-10-13T20:49:11.748Z,12.20
2022-10-13T20:51:39.584Z,12.20
2022-10-13T20:54:06.299Z,12.20
2022-10-13T20:56:33.402Z,12.20
2022-10-13T20:59:06.101Z,12.20
2022-10-13T21:01:35.248Z,12.20
2022-10-13T21:04:01.843Z,12.20
2022-10-13T21:06:28.508Z,12.20
2022-10-13T21:08:55.216Z,12.20
2022-10-13T21:11:23.379Z,12.10
2022-10-13T21:13:51.176Z,12.10
2022-10-13T21:16:21.696Z,12.10
2022-10-13T21:18:50.667Z,12.10
2022-10-13T21:21:20.768Z,12.10
2022-10-13T21:23:59.979Z,12.10
2022-10-13T21:26:28.838Z,12.00
2022-10-13T21:28:55.937Z,12.00
2022-10-13T21:31:23.847Z,12.00
2022-10-13T21:33:51.596Z,12.00
2022-10-13T21:36:22.401Z,12.00
2022-10-13T21:38:56.409Z,12.00
2022-10-13T21:41:24.230Z,12.00
2022-10-13T21:43:51.778Z,12.00
2022-10-13T21:46:22.169Z,12.00
2022-10-13T21:48:49.342Z,12.00
2022-10-13T21:51:29.279Z,12.00
2022-10-13T21:54:02.223Z,12.10
2022-10-13T21:56:34.081Z,12.10
2022-10-13T21:59:01.010Z,12.10
2022-10-13T22:01:28.625Z,12.10
2022-10-13T22:03:59.084Z,12.10
2022-10-13T22:06:27.094Z,12.10
2022-10-13T22:08:56.772Z,12.10
2022-10-13T22:11:27.284Z,12.10
2022-10-13T22:13:56.796Z,12.10
2022-10-13T22:16:31.011Z,12.00
2022-10-13T22:18:58.167Z,12.00
2022-10-13T22:21:30.231Z,12.10
2022-10-13T22:24:00.318Z,12.10
2022-10-13T22:26:31.315Z,12.10
2022-10-13T22:28:59.955Z,12.10
2022-10-13T22:31:27.301Z,12.10
2022-10-13T22:33:54.432Z,12.20
2022-10-13T22:36:24.534Z,12.20
2022-10-13T22:38:55.097Z,12.30
2022-10-13T22:41:22.212Z,12.30
2022-10-13T22:43:56.925Z,12.30
2022-10-13T22:46:33.906Z,12.30
2022-10-13T22:49:02.101Z,12.30
2022-10-13T22:51:31.200Z,12.30
2022-10-13T22:53:58.071Z,12.30
2022-10-13T22:56:31.636Z,12.30
2022-10-13T22:59:07.871Z,12.20
2022-10-13T23:01:35.300Z,12.30
2022-10-13T23:04:02.603Z,12.20
2022-10-13T23:06:32.600Z,12.20
2022-10-13T23:09:09.324Z,12.20
2022-10-13T23:11:36.018Z,12.20
2022-10-13T23:14:03.209Z,12.20
2022-10-13T23:16:30.800Z,12.20
2022-10-13T23:18:57.473Z,12.20
2022-10-13T23:21:28.306Z,12.20
2022-10-13T23:23:57.968Z,12.20
2022-10-13T23:26:25.131Z,12.20
2022-10-13T23:28:51.840Z,12.20
2022-10-13T23:31:18.580Z,12.10
2022-10-13T23:33:45.604Z,12.10
2022-10-13T23:36:20.093Z,12.10
2022-10-13T23:38:46.732Z,12.10
2022-10-13T23:41:16.040Z,12.10
2022-10-13T23:43:43.670Z,12.10
2022-10-13T23:46:10.885Z,12.10
2022-10-13T23:48:38.212Z,12.10
2022-10-13T23:51:20.376Z,12.10
2022-10-13T23:53:47.148Z,12.10
2022-10-13T23:56:14.088Z,12.10
2022-10-13T23:58:42.861Z,12.10
